createdAt,value
2024-04-18T00:03:33.920Z,97400.06
2024-04-18T00:06:01.922Z,97393.09
2024-04-18T00:08:29.108Z,97382.75
2024-04-18T00:10:59.481Z,97394.19
2024-04-18T00:13:39.097Z,97384.66
2024-04-18T00:16:06.589Z,97392.16
2024-04-18T00:18:33.665Z,97389.28
2024-04-18T00:21:20.841Z,97391.78
2024-04-18T00:23:56.817Z,97395.03
2024-04-18T00:26:42.854Z,97393.47
2024-04-18T00:29:10.185Z,97391.78
2024-04-18T00:31:37.224Z,97379.91
2024-04-18T00:34:04.278Z,97391.28
2024-04-18T00:36:45.183Z,97387.53
2024-04-18T00:39:24.745Z,97391.69
2024-04-18T00:42:01.663Z,97388.66
2024-04-18T00:44:31.772Z,97393.19
2024-04-18T00:47:15.179Z,97387.22
2024-04-18T00:50:03.204Z,97385.47
2024-04-18T00:52:40.110Z,97386.91
2024-04-18T00:55:11.413Z,97390.13
2024-04-18T00:57:40.725Z,97387.56
2024-04-18T01:00:08.630Z,97388.97
2024-04-18T01:02:54.255Z,97394.09
2024-04-18T01:05:34.016Z,97384.38
2024-04-18T01:08:04.191Z,97390.34
2024-04-18T01:11:06.746Z,97393.63
2024-04-18T01:13:38.184Z,97395.66
2024-04-18T01:16:24.299Z,97390.00
2024-04-18T01:18:51.202Z,97388.91
2024-04-18T01:21:18.395Z,97393.44
2024-04-18T01:23:45.361Z,97389.69
2024-04-18T01:26:14.590Z,97398.44
2024-04-18T01:28:41.825Z,97398.72
2024-04-18T01:31:08.745Z,97385.81
2024-04-18T01:33:36.074Z,97392.16
2024-04-18T01:36:03.443Z,97395.25
2024-04-18T01:38:51.622Z,97396.94
2024-04-18T01:41:40.191Z,97402.22
2024-04-18T01:44:27.392Z,97392.47
2024-04-18T01:47:12.971Z,97400.03
2024-04-18T01:49:59.987Z,97398.03
2024-04-18T01:52:27.178Z,97397.84
2024-04-18T01:55:03.625Z,97395.22
2024-04-18T01:57:40.255Z,97411.06
2024-04-18T02:00:30.471Z,97409.25
2024-04-18T02:02:57.557Z,97401.97
2024-04-18T02:05:43.459Z,97408.94
2024-04-18T02:08:16.944Z,97406.78
2024-04-18T02:10:49.254Z,97408.56
2024-04-18T02:13:36.537Z,97413.56
2024-04-18T02:16:04.937Z,97418.84
2024-04-18T02:18:48.210Z,97417.50
2024-04-18T02:21:15.447Z,97407.38
2024-04-18T02:23:53.385Z,97412.97
2024-04-18T02:26:20.642Z,97409.91
2024-04-18T02:28:48.234Z,97410.59
2024-04-18T02:31:18.570Z,97400.53
2024-04-18T02:33:51.491Z,97406.38
2024-04-18T02:36:18.673Z,97413.97
2024-04-18T02:38:45.883Z,97413.31
2024-04-18T02:41:13.220Z,97405.78
2024-04-18T02:43:55.911Z,97410.91
2024-04-18T02:46:24.491Z,97405.69
2024-04-18T02:49:11.775Z,97407.41
2024-04-18T02:51:58.756Z,97411.91
2024-04-18T02:54:44.781Z,97414.66
2024-04-18T02:57:12.908Z,97410.97
2024-04-18T02:59:40.100Z,97407.47
2024-04-18T03:02:27.087Z,97412.22
2024-04-18T03:05:20.822Z,97414.50
2024-04-18T03:07:58.316Z,97415.03
2024-04-18T03:10:50.872Z,97404.69
2024-04-18T03:13:37.473Z,97407.63
2024-04-18T03:16:24.444Z,97407.84
2024-04-18T03:18:51.398Z,97407.16
2024-04-18T03:21:18.749Z,97411.56
2024-04-18T03:23:46.635Z,97417.56
2024-04-18T03:26:34.447Z,97415.88
2024-04-18T03:29:01.411Z,97417.38
2024-04-18T03:31:28.893Z,97417.19
2024-04-18T03:33:56.002Z,97415.78
2024-04-18T03:36:22.994Z,97423.31
2024-04-18T03:38:55.153Z,97424.22
2024-04-18T03:41:22.309Z,97424.13
2024-04-18T03:44:09.054Z,97432.50
2024-04-18T03:46:37.499Z,97433.53
2024-04-18T03:49:06.163Z,97438.59
2024-04-18T03:51:33.493Z,97439.44
2024-04-18T03:54:24.291Z,97437.94
2024-04-18T03:56:52.329Z,97441.22
2024-04-18T03:59:19.576Z,97431.38
2024-04-18T04:01:46.562Z,97439.81
2024-04-18T04:04:13.735Z,97442.03
2024-04-18T04:06:41.151Z,97443.88
2024-04-18T04:09:08.169Z,97452.84
2024-04-18T04:11:37.184Z,97451.25
2024-04-18T04:14:06.575Z,97454.75
2024-04-18T04:16:53.137Z,97451.31
2024-04-18T04:19:21.109Z,97451.00
2024-04-18T04:21:48.633Z,97447.91
2024-04-18T04:24:15.836Z,97454.03
2024-04-18T04:26:52.488Z,97461.28
2024-04-18T04:29:20.249Z,97462.47
2024-04-18T04:31:48.081Z,97474.72
2024-04-18T04:34:15.226Z,97467.28
2024-04-18T04:36:42.277Z,97467.44
2024-04-18T04:39:10.151Z,97473.66
2024-04-18T04:41:41.092Z,97490.78
2024-04-18T04:44:08.927Z,97484.69
2024-04-18T04:46:49.864Z,97482.25
2024-04-18T04:49:17.867Z,97491.59
2024-04-18T04:52:08.963Z,97490.88
2024-04-18T04:54:43.931Z,97496.78
2024-04-18T04:57:12.260Z,97496.91
2024-04-18T04:59:39.343Z,97500.94
2024-04-18T05:02:06.682Z,97499.38
2024-04-18T05:04:50.305Z,97497.50
2024-04-18T05:07:33.457Z,97504.91
2024-04-18T05:10:21.119Z,97517.59
2024-04-18T05:12:50.229Z,97517.97
2024-04-18T05:15:36.446Z,97521.66
2024-04-18T05:18:07.889Z,97527.78
2024-04-18T05:20:35.003Z,97525.00
2024-04-18T05:23:02.234Z,97520.59
2024-04-18T05:25:29.249Z,97524.56
2024-04-18T05:28:21.680Z,97541.16
2024-04-18T05:31:07.091Z,97538.38
2024-04-18T05:33:36.285Z,97543.78
2024-04-18T05:36:05.296Z,97542.97
2024-04-18T05:38:32.422Z,97549.94
2024-04-18T05:40:59.667Z,97547.78
2024-04-18T05:43:47.004Z,97558.44
2024-04-18T05:46:14.160Z,97550.13
2024-04-18T05:48:41.311Z,97563.22
2024-04-18T05:51:08.956Z,97565.13
2024-04-18T05:53:53.002Z,97568.53
2024-04-18T05:56:30.033Z,97571.66
2024-04-18T05:58:57.901Z,97580.13
2024-04-18T06:01:25.208Z,97575.19
2024-04-18T06:03:53.690Z,97575.28
2024-04-18T06:06:21.058Z,97578.88
2024-04-18T06:08:48.152Z,97579.00
2024-04-18T06:11:18.002Z,97579.78
2024-04-18T06:13:45.044Z,97583.53
2024-04-18T06:16:12.533Z,97580.25
2024-04-18T06:18:51.757Z,97584.97
2024-04-18T06:21:18.969Z,97583.41
2024-04-18T06:23:46.318Z,97587.25
2024-04-18T06:26:19.805Z,97587.84
2024-04-18T06:28:46.989Z,97593.75
2024-04-18T06:31:14.862Z,97595.94
2024-04-18T06:33:42.214Z,97592.59
2024-04-18T06:36:09.479Z,97592.03
2024-04-18T06:38:38.289Z,97593.97
2024-04-18T06:41:08.623Z,97598.03
2024-04-18T06:43:41.874Z,97600.66
2024-04-18T06:46:10.328Z,97596.41
2024-04-18T06:48:37.667Z,97604.94
2024-04-18T06:51:05.031Z,97608.69
2024-04-18T06:53:32.164Z,97598.25
2024-04-18T06:56:01.201Z,97614.44
2024-04-18T06:58:28.328Z,97611.47
2024-04-18T07:00:55.634Z,97620.16
2024-04-18T07:03:22.901Z,97629.41
2024-04-18T07:05:51.387Z,97619.78
2024-04-18T07:08:22.212Z,97626.84
2024-04-18T07:10:49.586Z,97624.06
2024-04-18T07:13:29.985Z,97614.78
2024-04-18T07:16:00.669Z,97633.53
2024-04-18T07:18:48.023Z,97639.19
2024-04-18T07:21:16.676Z,97645.34
2024-04-18T07:23:44.138Z,97637.25
2024-04-18T07:26:11.224Z,97649.53
2024-04-18T07:28:38.246Z,97648.56
2024-04-18T07:31:05.392Z,97642.28
2024-04-18T07:33:35.030Z,97655.59
2024-04-18T07:36:16.156Z,97646.16
2024-04-18T07:38:43.302Z,97648.38
2024-04-18T07:41:10.519Z,97646.16
2024-04-18T07:43:37.557Z,97656.81
2024-04-18T07:46:05.520Z,97656.09
2024-04-18T07:48:32.789Z,97662.16
2024-04-18T07:51:00.171Z,97660.34
2024-04-18T07:53:27.827Z,97660.06
2024-04-18T07:55:54.956Z,97669.16
2024-04-18T07:58:22.411Z,97667.38
2024-04-18T08:00:53.960Z,97671.16
2024-04-18T08:03:24.505Z,97674.59
2024-04-18T08:05:55.113Z,97688.59
2024-04-18T08:08:27.418Z,97681.28
2024-04-18T08:11:16.114Z,97686.06
2024-04-18T08:13:47.725Z,97687.84
2024-04-18T08:16:19.413Z,97689.06
2024-04-18T08:18:46.541Z,97692.19
2024-04-18T08:21:14.573Z,97692.34
2024-04-18T08:23:42.089Z,97695.69
2024-04-18T08:26:09.505Z,97689.78
2024-04-18T08:28:36.501Z,97690.16
2024-04-18T08:31:03.695Z,97682.56
2024-04-18T08:33:30.812Z,97678.56
2024-04-18T08:35:57.861Z,97695.16
2024-04-18T08:38:24.820Z,97695.31
2024-04-18T08:41:04.028Z,97690.72
2024-04-18T08:43:32.032Z,97697.31
2024-04-18T08:45:59.457Z,97699.31
2024-04-18T08:48:28.271Z,97699.41
2024-04-18T08:50:55.926Z,97690.59
2024-04-18T08:53:23.100Z,97690.09
2024-04-18T08:55:53.453Z,97689.03
2024-04-18T08:58:23.284Z,97684.19
2024-04-18T09:00:53.326Z,97685.56
2024-04-18T09:03:23.575Z,97685.00
2024-04-18T09:05:58.038Z,97695.47
2024-04-18T09:08:29.391Z,97698.03
2024-04-18T09:11:00.231Z,97695.00
2024-04-18T09:13:27.493Z,97701.28
2024-04-18T09:15:54.627Z,97690.50
2024-04-18T09:18:21.896Z,97689.38
2024-04-18T09:20:49.610Z,97699.53
2024-04-18T09:23:17.414Z,97692.53
2024-04-18T09:25:45.922Z,97694.88
2024-04-18T09:28:13.092Z,97692.41
2024-04-18T09:30:41.081Z,97689.19
2024-04-18T09:33:10.384Z,97695.03
2024-04-18T09:35:38.562Z,97703.50
2024-04-18T09:38:10.629Z,97703.41
2024-04-18T09:40:42.461Z,97705.28
2024-04-18T09:43:31.826Z,97712.13
2024-04-18T09:46:06.897Z,97703.03
2024-04-18T09:48:35.930Z,97704.53
2024-04-18T09:51:04.567Z,97695.56
2024-04-18T09:53:32.245Z,97685.38
2024-04-18T09:56:01.237Z,97687.03
2024-04-18T09:58:29.509Z,97686.63
2024-04-18T10:00:57.888Z,97687.88
2024-04-18T10:03:30.124Z,97696.47
2024-04-18T10:06:02.216Z,97699.56
2024-04-18T10:08:35.044Z,97692.16
2024-04-18T10:11:03.312Z,97698.84
2024-04-18T10:13:30.451Z,97705.59
2024-04-18T10:16:14.266Z,97699.84
2024-04-18T10:18:43.819Z,97703.41
2024-04-18T10:21:15.911Z,97714.97
2024-04-18T10:23:50.832Z,97711.16
2024-04-18T10:26:19.510Z,97708.66
2024-04-18T10:28:48.232Z,97710.50
2024-04-18T10:31:17.030Z,97695.88
2024-04-18T10:33:46.098Z,97706.69
2024-04-18T10:36:20.189Z,97711.59
2024-04-18T10:38:48.890Z,97712.84
2024-04-18T10:41:19.845Z,97722.88
2024-04-18T10:43:47.613Z,97724.09
2024-04-18T10:46:15.413Z,97719.53
2024-04-18T10:48:43.676Z,97731.69
2024-04-18T10:51:11.406Z,97726.53
2024-04-18T10:53:39.951Z,97729.31
2024-04-18T10:56:07.594Z,97729.91
2024-04-18T10:58:35.279Z,97710.75
2024-04-18T11:01:05.985Z,97716.78
2024-04-18T11:03:34.300Z,97722.47
2024-04-18T11:06:05.484Z,97730.28
2024-04-18T11:08:35.362Z,97726.88
2024-04-18T11:11:04.935Z,97726.44
2024-04-18T11:13:32.342Z,97724.59
2024-04-18T11:15:59.599Z,97723.66
2024-04-18T11:18:27.047Z,97731.41
2024-04-18T11:20:54.364Z,97735.59
2024-04-18T11:23:35.523Z,97730.06
2024-04-18T11:26:12.587Z,97738.44
2024-04-18T11:28:42.210Z,97731.97
2024-04-18T11:31:10.384Z,97727.69
2024-04-18T11:33:40.155Z,97743.16
2024-04-18T11:36:08.684Z,97743.50
2024-04-18T11:38:36.186Z,97743.41
2024-04-18T11:41:03.826Z,97739.56
2024-04-18T11:43:31.067Z,97742.41
2024-04-18T11:45:58.561Z,97741.97
2024-04-18T11:48:26.607Z,97741.66
2024-04-18T11:50:54.310Z,97753.47
2024-04-18T11:53:21.550Z,97744.44
2024-04-18T11:55:48.654Z,97737.84
2024-04-18T11:58:30.163Z,97742.88
2024-04-18T12:00:59.532Z,97753.91
2024-04-18T12:03:41.608Z,97743.09
2024-04-18T12:06:28.784Z,97748.91
2024-04-18T12:08:56.678Z,97735.13
2024-04-18T12:11:32.008Z,97744.19
2024-04-18T12:14:12.664Z,97747.06
2024-04-18T12:16:55.815Z,97729.00
2024-04-18T12:19:41.324Z,97748.56
2024-04-18T12:22:12.602Z,97742.16
2024-04-18T12:24:40.279Z,97753.25
2024-04-18T12:27:10.446Z,97755.00
2024-04-18T12:29:53.943Z,97755.25
2024-04-18T12:32:22.130Z,97761.81
2024-04-18T12:34:52.054Z,97756.88
2024-04-18T12:37:20.289Z,97752.41
2024-04-18T12:39:49.802Z,97749.13
2024-04-18T12:42:26.033Z,97752.97
2024-04-18T12:44:53.576Z,97749.22
2024-04-18T12:47:23.694Z,97759.56
2024-04-18T12:49:51.247Z,97746.53
2024-04-18T12:52:18.350Z,97734.53
2024-04-18T12:54:47.982Z,97752.38
2024-04-18T12:57:24.985Z,97756.16
2024-04-18T13:00:06.708Z,97765.94
2024-04-18T13:02:52.817Z,97769.28
2024-04-18T13:05:39.004Z,97765.56
2024-04-18T13:08:06.846Z,97764.94
2024-04-18T13:10:53.363Z,97772.81
2024-04-18T13:13:23.537Z,97775.97
2024-04-18T13:16:12.359Z,97778.53
2024-04-18T13:18:44.156Z,97780.44
2024-04-18T13:21:31.577Z,97783.81
2024-04-18T13:23:58.762Z,97785.09
2024-04-18T13:26:25.955Z,97779.38
2024-04-18T13:28:53.644Z,97781.06
2024-04-18T13:31:21.881Z,97779.41
2024-04-18T13:34:09.624Z,97778.72
2024-04-18T13:36:37.908Z,97776.97
2024-04-18T13:39:10.130Z,97783.13
2024-04-18T13:41:44.328Z,97789.66
2024-04-18T13:44:18.437Z,97783.88
2024-04-18T13:46:46.063Z,97787.66
2024-04-18T13:49:33.953Z,97800.66
2024-04-18T13:52:01.358Z,97789.75
2024-04-18T13:54:36.322Z,97790.59
2024-04-18T13:57:07.748Z,97782.75
2024-04-18T13:59:41.818Z,97781.44
2024-04-18T14:02:35.236Z,97794.91
2024-04-18T14:05:22.675Z,97790.22
2024-04-18T14:08:05.683Z,97797.31
2024-04-18T14:10:33.957Z,97798.50
2024-04-18T14:13:24.579Z,97803.34
2024-04-18T14:16:14.483Z,97809.13
2024-04-18T14:18:51.702Z,97799.84
2024-04-18T14:21:34.400Z,97801.09
2024-04-18T14:24:02.493Z,97796.91
2024-04-18T14:26:29.540Z,97791.47
2024-04-18T14:29:16.808Z,97796.81
2024-04-18T14:32:01.922Z,97803.16
2024-04-18T14:34:49.813Z,97805.81
2024-04-18T14:37:19.056Z,97813.78
2024-04-18T14:39:48.006Z,97801.16
2024-04-18T14:42:15.881Z,97810.28
2024-04-18T14:44:43.208Z,97813.38
2024-04-18T14:47:15.614Z,97801.13
2024-04-18T14:50:02.294Z,97810.13
2024-04-18T14:52:37.156Z,97808.69
2024-04-18T14:55:28.941Z,97810.78
2024-04-18T14:58:17.167Z,97810.06
2024-04-18T15:00:53.131Z,97813.22
2024-04-18T15:03:22.237Z,97820.06
2024-04-18T15:05:57.400Z,97812.44
2024-04-18T15:08:38.698Z,97820.75
2024-04-18T15:11:22.482Z,97821.72
2024-04-18T15:14:06.781Z,97829.59
2024-04-18T15:16:34.291Z,97831.94
2024-04-18T15:19:04.687Z,97824.53
2024-04-18T15:21:51.091Z,97825.50
2024-04-18T15:24:23.491Z,97836.22
2024-04-18T15:27:01.051Z,97832.44
2024-04-18T15:29:28.399Z,97831.84
2024-04-18T15:32:14.093Z,97837.38
2024-04-18T15:34:48.179Z,97838.78
2024-04-18T15:37:34.869Z,97841.31
2024-04-18T15:40:02.710Z,97848.75
2024-04-18T15:42:29.783Z,97849.66
2024-04-18T15:44:57.411Z,97850.13
2024-04-18T15:47:31.281Z,97849.06
2024-04-18T15:50:17.483Z,97855.16
2024-04-18T15:52:46.656Z,97857.19
2024-04-18T15:55:30.534Z,97856.97
2024-04-18T15:58:16.570Z,97863.69
2024-04-18T16:00:44.118Z,97861.31
2024-04-18T16:03:32.268Z,97869.59
2024-04-18T16:06:22.891Z,97866.19
2024-04-18T16:09:08.404Z,97860.47
2024-04-18T16:11:41.942Z,97863.44
2024-04-18T16:14:28.036Z,97879.91
2024-04-18T16:16:55.260Z,97880.16
2024-04-18T16:19:37.994Z,97887.34
2024-04-18T16:22:05.756Z,97893.94
2024-04-18T16:24:49.847Z,97893.94
2024-04-18T16:27:18.075Z,97888.63
2024-04-18T16:30:00.499Z,97887.31
2024-04-18T16:32:40.366Z,97883.69
2024-04-18T16:35:08.307Z,97895.06
2024-04-18T16:37:39.435Z,97893.66
2024-04-18T16:40:18.850Z,97902.75
2024-04-18T16:43:00.374Z,97901.47
2024-04-18T16:45:48.255Z,97901.31
2024-04-18T16:48:15.475Z,97891.84
2024-04-18T16:50:42.977Z,97911.03
2024-04-18T16:53:10.069Z,97906.84
2024-04-18T16:55:43.197Z,97908.25
2024-04-18T16:58:17.795Z,97926.66
2024-04-18T17:00:55.075Z,97915.34
2024-04-18T17:03:22.438Z,97916.72
2024-04-18T17:06:03.184Z,97920.13
2024-04-18T17:08:31.184Z,97910.44
2024-04-18T17:10:58.878Z,97913.50
2024-04-18T17:13:44.245Z,97914.63
2024-04-18T17:16:12.259Z,97923.66
2024-04-18T17:18:48.518Z,97928.00
2024-04-18T17:21:15.685Z,97918.66
2024-04-18T17:23:43.121Z,97929.16
2024-04-18T17:26:10.482Z,97932.69
2024-04-18T17:28:37.763Z,97930.19
2024-04-18T17:31:06.128Z,97930.09
2024-04-18T17:33:33.333Z,97939.63
2024-04-18T17:36:02.875Z,97939.28
2024-04-18T17:38:45.442Z,97938.56
2024-04-18T17:41:31.861Z,97948.06
2024-04-18T17:44:17.736Z,97951.50
2024-04-18T17:46:55.165Z,97950.06
2024-04-18T17:49:22.511Z,97948.19
2024-04-18T17:51:51.551Z,97940.19
2024-04-18T17:54:19.206Z,97941.66
2024-04-18T17:56:46.867Z,97949.78
2024-04-18T17:59:15.697Z,97942.44
2024-04-18T18:01:44.538Z,97942.69
2024-04-18T18:04:13.334Z,97955.16
2024-04-18T18:06:41.004Z,97952.34
2024-04-18T18:09:08.064Z,97950.38
2024-04-18T18:11:35.174Z,97948.25
2024-04-18T18:14:03.664Z,97955.03
2024-04-18T18:16:50.363Z,97961.78
2024-04-18T18:19:18.690Z,97961.53
2024-04-18T18:21:58.175Z,97957.81
2024-04-18T18:24:25.349Z,97972.50
2024-04-18T18:26:52.431Z,97971.91
2024-04-18T18:29:19.625Z,97978.84
2024-04-18T18:32:06.663Z,97982.16
2024-04-18T18:37:03.202Z,97982.72
2024-04-18T18:39:30.214Z,97980.41
2024-04-18T18:41:57.261Z,97984.63
2024-04-18T18:44:24.208Z,97990.84
2024-04-18T18:46:51.739Z,97995.16
2024-04-18T18:49:18.837Z,97997.66
2024-04-18T18:51:46.816Z,97995.66
2024-04-18T18:54:14.420Z,97989.97
2024-04-18T18:56:41.470Z,98001.41
2024-04-18T18:59:27.443Z,97997.81
2024-04-18T19:01:54.495Z,97998.19
2024-04-18T19:04:25.484Z,97992.13
2024-04-18T19:06:53.495Z,97999.94
2024-04-18T19:09:23.696Z,98003.25
2024-04-18T19:11:51.179Z,98004.75
2024-04-18T19:14:18.135Z,98001.53
2024-04-18T19:17:04.278Z,98009.78
2024-04-18T19:19:32.087Z,98009.69
2024-04-18T19:21:59.281Z,98011.41
2024-04-18T19:24:26.508Z,98009.28
2024-04-18T19:27:04.700Z,98021.31
2024-04-18T19:29:40.055Z,98017.53
2024-04-18T19:32:15.043Z,98023.22
2024-04-18T19:34:42.002Z,98023.66
2024-04-18T19:37:09.305Z,98021.97
2024-04-18T19:39:36.920Z,98024.91
2024-04-18T19:42:04.396Z,98028.09
2024-04-18T19:44:31.981Z,98024.50
2024-04-18T19:46:59.229Z,98023.03
2024-04-18T19:49:29.824Z,98034.41
2024-04-18T19:51:57.786Z,98029.88
2024-04-18T19:54:25.374Z,98030.50
2024-04-18T19:56:53.287Z,98017.00
2024-04-18T19:59:20.348Z,98034.06
2024-04-18T20:01:48.279Z,98036.03
2024-04-18T20:04:15.949Z,98034.53
2024-04-18T20:06:43.229Z,98033.81
2024-04-18T20:09:10.336Z,98030.22
2024-04-18T20:11:37.635Z,98038.84
2024-04-18T20:14:05.407Z,98030.91
2024-04-18T20:16:32.870Z,98031.66
2024-04-18T20:19:13.682Z,98036.19
2024-04-18T20:21:43.437Z,98038.25
2024-04-18T20:24:13.568Z,98038.28
2024-04-18T20:26:59.522Z,98040.06
2024-04-18T20:29:46.249Z,98038.38
2024-04-18T20:32:23.516Z,98043.09
2024-04-18T20:34:50.843Z,98041.88
2024-04-18T20:37:18.594Z,98046.66
2024-04-18T20:39:48.813Z,98045.34
2024-04-18T20:42:16.547Z,98048.91
2024-04-18T20:45:03.724Z,98048.91
2024-04-18T20:47:31.182Z,98046.31
2024-04-18T20:49:58.768Z,98045.75
2024-04-18T20:52:25.989Z,98041.16
2024-04-18T20:54:53.862Z,98046.31
2024-04-18T20:57:22.844Z,98051.94
2024-04-18T20:59:50.701Z,98051.13
2024-04-18T21:02:17.750Z,98046.31
2024-04-18T21:04:45.045Z,98051.94
2024-04-18T21:07:12.077Z,98047.41
2024-04-18T21:09:40.377Z,98047.22
2024-04-18T21:12:07.795Z,98039.59
2024-04-18T21:14:34.774Z,98044.16
2024-04-18T21:17:01.942Z,98038.66
2024-04-18T21:19:29.160Z,98043.31
2024-04-18T21:21:56.363Z,98047.69
2024-04-18T21:24:23.605Z,98043.66
2024-04-18T21:26:50.631Z,98035.41
2024-04-18T21:29:18.042Z,98040.66
2024-04-18T21:31:45.153Z,98036.84
2024-04-18T21:34:12.564Z,98040.25
2024-04-18T21:36:40.089Z,98045.75
2024-04-18T21:39:07.381Z,98040.00
2024-04-18T21:41:36.007Z,98032.84
2024-04-18T21:44:03.561Z,98042.41
2024-04-18T21:46:31.540Z,98038.94
2024-04-18T21:48:58.566Z,98047.56
2024-04-18T21:51:25.632Z,98042.38
2024-04-18T21:53:52.980Z,98039.13
2024-04-18T21:56:20.992Z,98032.75
2024-04-18T21:58:51.753Z,98030.41
2024-04-18T22:01:37.316Z,98032.28
2024-04-18T22:04:04.810Z,98021.22
2024-04-18T22:06:32.144Z,98034.19
2024-04-18T22:09:00.161Z,98016.53
2024-04-18T22:11:27.787Z,98028.00
2024-04-18T22:13:55.337Z,98026.28
2024-04-18T22:16:22.492Z,98021.47
2024-04-18T22:18:49.931Z,98016.22
2024-04-18T22:21:35.117Z,98011.75
2024-04-18T22:24:03.604Z,98009.38
2024-04-18T22:26:32.070Z,98007.44
2024-04-18T22:28:59.398Z,98008.19
2024-04-18T22:31:26.542Z,98005.72
2024-04-18T22:33:53.691Z,97999.41
2024-04-18T22:36:20.934Z,97988.25
2024-04-18T22:38:48.121Z,97991.94
2024-04-18T22:41:15.578Z,98004.03
2024-04-18T22:43:44.157Z,98008.00
2024-04-18T22:46:12.795Z,98021.09
2024-04-18T22:48:41.468Z,98018.09
2024-04-18T22:51:09.514Z,98025.31
2024-04-18T22:53:36.944Z,98022.03
2024-04-18T22:56:04.658Z,98017.44
2024-04-18T22:58:31.861Z,98018.09
2024-04-18T23:01:05.570Z,98015.88
2024-04-18T23:03:32.930Z,98015.38
2024-04-18T23:06:14.102Z,98014.97
2024-04-18T23:08:45.355Z,98020.75
2024-04-18T23:11:14.882Z,98015.63
2024-04-18T23:13:42.299Z,98012.28
2024-04-18T23:16:10.270Z,98015.44
2024-04-18T23:18:38.569Z,98012.25
2024-04-18T23:21:06.078Z,98011.00
2024-04-18T23:23:33.679Z,98004.81
2024-04-18T23:26:00.805Z,98007.59
2024-04-18T23:28:28.026Z,98002.81
2024-04-18T23:30:55.059Z,98007.31
2024-04-18T23:33:22.339Z,98011.28
2024-04-18T23:35:50.166Z,97997.66
2024-04-18T23:38:17.389Z,98001.81
2024-04-18T23:40:45.194Z,98002.16
2024-04-18T23:43:12.656Z,97999.75
2024-04-18T23:45:39.931Z,97991.69
2024-04-18T23:48:08.266Z,97994.72
2024-04-18T23:50:35.419Z,97991.44
2024-04-18T23:53:02.999Z,97984.25
2024-04-18T23:55:30.178Z,97986.09
2024-04-18T23:57:57.238Z,97983.25
